KMHR

Sacramento Mather Airport

Sacramento, California, USA
METAR KMHR 230950Z 14007KT 10SM SKC 09/07 A2993
Observed Flight Rules
Oct-23 @ 09:50 UTC (18 minutes ago) Visual Flight Rules
Wind Visibility Clouds
140° at 7 knots 10 miles
  • Clear skies
Temperatures Readings
Current 9°C / 48°F
Dewpoint 7°C / 45°F
Humidity 87%
Altimeter 29.93" Hg
Pressure 1014 hPa
Elevation 29
METAR KMHR 230950Z 14007KT 10SM SKC 09/07 A2993
Observed Flight Rules
Oct-23 @ 09:50 UTC
(18 minutes ago)
VFR
Wind Visibility
140° at 7 knots 10 miles
Clouds
  • Clear skies
Temperature Dewpoint
9°C / 48°F 7°C / 45°F
Humidity Altimeter Pressure
87% 29.93" Hg 1014 hPa